WetterOnline ( http://www.wetteronline.de )

Wetter aktuell Greifswalder Bodden

Aktuelles Wetter: Greifswalder Oie (12m)

6-stündlich | Neueste Meldungen
Ortszeit Temperatur Wetter
Di, 20.02. 19:00 1.7° C fast wolkenlos
Di, 20.02. 13:00 2.1° C wolkenlos
Di, 20.02. 7:00 1.0° C bedeckt
Di, 20.02. 1:00 1.4° C bewölkt
Mo, 19.02. 19:00 2.4° C leicht bewölkt
Mo, 19.02. 13:00 2.6° C wolkig
Mo, 19.02. 7:00 1.1° C wolkig
Mo, 19.02. 1:00 1.7° C bedeckt
Ortszeit Temperatur Wetter
Di, 20.02. 20:00 2.0° C bedeckt
Di, 20.02. 19:50 2.0° C bedeckt
Di, 20.02. 19:40 1.9° C bedeckt
Di, 20.02. 19:30 1.7° C wolkig
Di, 20.02. 19:20 1.7° C wolkig
Di, 20.02. 19:10 1.6° C leicht bewölkt
Di, 20.02. 19:00 1.7° C fast wolkenlos
Di, 20.02. 18:30 1.6° C wolkenlos
Di, 20.02. 18:00 1.6° C wolkenlos
Di, 20.02. 17:30 1.6° C wolkenlos
Di, 20.02. 17:00 1.7° C wolkenlos
Ortszeit Relative Feuchte Sichtweite
Di, 20.02. 19:00 76% 16 km
Di, 20.02. 13:00 65% 7 km
Di, 20.02. 7:00 82% 6 km
Di, 20.02. 1:00 76% 6 km
Mo, 19.02. 19:00 80% 8 km
Mo, 19.02. 13:00 74% 12 km
Mo, 19.02. 7:00 78% 15 km
Mo, 19.02. 1:00 75% 28 km
Ortszeit Relative Feuchte Sichtweite
Di, 20.02. 20:00 80% 15 km
Di, 20.02. 19:50 80% -
Di, 20.02. 19:40 78% -
Di, 20.02. 19:30 79% 16 km
Di, 20.02. 19:20 79% -
Di, 20.02. 19:10 80% -
Di, 20.02. 19:00 76% 16 km
Di, 20.02. 18:30 79% 13 km
Di, 20.02. 18:00 80% 11 km
Di, 20.02. 17:30 79% 11 km
Di, 20.02. 17:00 79% 9 km
Ortszeit Niederschlagsmenge Niederschlagsart
Di, 20.02. 19:00 0.0 l/m2 in 12 Std. -
Di, 20.02. 13:00 0.0 l/m2 in 6 Std. -
Di, 20.02. 7:00 0.0 l/m2 in 12 Std. -
Di, 20.02. 1:00 0.0 l/m2 in 6 Std. -
Mo, 19.02. 19:00 0.0 l/m2 in 12 Std. -
Mo, 19.02. 13:00 0.0 l/m2 in 6 Std. -
Mo, 19.02. 7:00 0.0 l/m2 in 12 Std. -
Mo, 19.02. 1:00 0.0 l/m2 in 6 Std. -
Ortszeit Niederschlagsmenge Niederschlagsart
Di, 20.02. 20:00 0.0 l/m2 in 1 Std. -
Di, 20.02. 19:50 keine Meldung -
Di, 20.02. 19:40 keine Meldung -
Di, 20.02. 19:30 0.0 l/m2 in 1 Std. -
Di, 20.02. 19:20 keine Meldung -
Di, 20.02. 19:10 keine Meldung -
Di, 20.02. 19:00 0.0 l/m2 in 1 Std. -
Di, 20.02. 18:30 0.0 l/m2 in 1 Std. -
Di, 20.02. 18:00 0.0 l/m2 in 1 Std. -
Di, 20.02. 17:30 0.0 l/m2 in 1 Std. -
Di, 20.02. 17:00 0.0 l/m2 in 1 Std. -
Ortszeit Stärke Spitze Richtung
km/h Bft. km/h Grad Sektor
Di, 20.02. 19:00 20 4 33 80° O
Di, 20.02. 13:00 20 4 31 100° O
Di, 20.02. 7:00 18 3 29 100° O
Di, 20.02. 1:00 19 3 31 140° SO
Mo, 19.02. 19:00 14 3 25 140° SO
Mo, 19.02. 13:00 11 2 35 150° SO
Mo, 19.02. 7:00 19 3 30 180° S
Mo, 19.02. 1:00 25 4 29 200° S
Ortszeit Stärke Spitze Richtung
km/h Bft. km/h Grad Sektor
Di, 20.02. 20:00 17 3 26 70° O
Di, 20.02. 19:50 17 3 - 70° O
Di, 20.02. 19:40 14 3 - 70° O
Di, 20.02. 19:30 18 3 25 80° O
Di, 20.02. 19:20 18 3 - 80° O
Di, 20.02. 19:10 18 3 - 80° O
Di, 20.02. 19:00 20 4 30 80° O
Di, 20.02. 18:30 19 3 30 70° O
Di, 20.02. 18:00 20 4 33 70° O
Di, 20.02. 17:30 22 4 32 70° O
Di, 20.02. 17:00 22 4 32 70° O
Ortszeit Untergrenze Bedeckung Gattung
total tief tief mittel hoch
Di, 20.02. 19:00 1200 m 0/8 0/8 - - -
Di, 20.02. 13:00 - 0/8 0/8 - - -
Di, 20.02. 7:00 1260 m 8/8 8/8 - - -
Di, 20.02. 1:00 1170 m 8/8 7/8 - - -
Mo, 19.02. 19:00 2100 m 5/8 1/8 - - -
Mo, 19.02. 13:00 3000 m 6/8 6/8 - - -
Mo, 19.02. 7:00 1050 m 7/8 1/8 - - -
Mo, 19.02. 1:00 1260 m 8/8 8/8 - - -
Ortszeit Bedeckungsgrad in Achtel und Wolkenuntergrenze
Di, 20.02. 20:00 8(1290m)
Di, 20.02. 19:50 8(1290m)
Di, 20.02. 19:40 8(1350m)
Di, 20.02. 19:30 6(1320m)
Di, 20.02. 19:20 6(1320m)
Di, 20.02. 19:10 3(1290m)
Di, 20.02. 19:00 3(1200m)
Di, 20.02. 18:30 keine Wolken
Di, 20.02. 18:00 keine Wolken
Di, 20.02. 17:30 keine Wolken
Di, 20.02. 17:00 keine Wolken
Ortszeit Luftdruck NN (hPa) Tendenz (hPa in 3 Std.)
Di, 20.02. 19:00 1024 + 1,1
Di, 20.02. 13:00 1023 + 0,3
Di, 20.02. 7:00 1022 + 0,4
Di, 20.02. 1:00 1022 + 0,4
Mo, 19.02. 19:00 1021 + 0,3
Mo, 19.02. 13:00 1021 - 0,7
Mo, 19.02. 7:00 1022 - 0,9
Mo, 19.02. 1:00 1025 - 1,1
Ortszeit Luftdruck NN (hPa) Tendenz (hPa in 3 Std.)
Di, 20.02. 20:00 1025 + 1,3
Di, 20.02. 19:50 1025 keine Meldung
Di, 20.02. 19:40 1025 keine Meldung
Di, 20.02. 19:30 1024 + 1,2
Di, 20.02. 19:20 1024 keine Meldung
Di, 20.02. 19:10 1024 keine Meldung
Di, 20.02. 19:00 1024 + 1,1
Di, 20.02. 18:30 1024 + 0,6
Di, 20.02. 18:00 1024 + 0,5
Di, 20.02. 17:30 1024 + 0,4
Di, 20.02. 17:00 1023 + 0,2
Ortszeit Schneehöhe (cm)
Di, 20.02. 19:00 0
Di, 20.02. 13:00 0
Di, 20.02. 7:00 0
Di, 20.02. 1:00 0
Mo, 19.02. 19:00 0
Mo, 19.02. 13:00 0
Mo, 19.02. 7:00 0
Mo, 19.02. 1:00 0
Ortszeit Schneehöhe (cm)
Di, 20.02. 20:00 0
Di, 20.02. 19:50 0
Di, 20.02. 19:40 0
Di, 20.02. 19:30 0
Di, 20.02. 19:20 0
Di, 20.02. 19:10 0
Di, 20.02. 19:00 0
Di, 20.02. 18:30 0
Di, 20.02. 18:00 0
Di, 20.02. 17:30 0
Di, 20.02. 17:00 0
Link zu dieser Seite / Seite empfehlen

Das Wetter in ...